Time;durP1;ratioP1;P1;durP2;ratioP2;P2;SDS_P1;SDS_P2;PMS_P1;PMS_P2;Temp;Humidity;BMP_temperature;BMP_pressure;BME280_temperature;BME280_humidity;BME280_pressure;Samples;Min_cycle;Max_cycle;Signal;HPM_P1;HPM_P2
2021/11/13 00:03:10;;;;;;;52;65.9;;;;;;;5.6;81.1;99070;;;;
2021/11/13 00:13:10;;;;;;;52.7;65.9;;;;;;;5.7;80.3;99070;;;;
2021/11/13 00:23:10;;;;;;;52.7;65.9;;;;;;;5.6;80.7;99050;;;;
2021/11/13 00:33:09;;;;;;;52.7;65.9;;;;;;;5.7;80.6;99050;;;;
2021/11/13 00:43:09;;;;;;;52.1;63.4;;;;;;;5.8;80.5;99040;;;;
2021/11/13 00:54:09;;;;;;;52.1;63.4;;;;;;;5.7;80.3;99040;;;;
2021/11/13 01:04:09;;;;;;;52.1;63.4;;;;;;;5.6;80.6;99040;;;;
2021/11/13 01:14:09;;;;;;;54.7;70.4;;;;;;;5.6;80.6;99030;;;;
2021/11/13 01:24:09;;;;;;;54.7;70.4;;;;;;;5.7;80.1;99020;;;;
2021/11/13 01:34:09;;;;;;;54.7;70.4;;;;;;;5.7;80.1;99000;;;;
2021/11/13 01:44:09;;;;;;;53;70.2;;;;;;;5.4;80.8;98990;;;;
2021/11/13 01:54:09;;;;;;;53;70.2;;;;;;;5.3;81;98990;;;;
2021/11/13 02:04:09;;;;;;;53;70.2;;;;;;;5.5;80.5;98980;;;;
2021/11/13 02:14:10;;;;;;;50;59.6;;;;;;;5.5;80.6;98980;;;;
2021/11/13 02:24:10;;;;;;;50;59.6;;;;;;;5.5;80.7;98980;;;;
2021/11/13 02:34:09;;;;;;;50;59.6;;;;;;;5.5;80.2;98950;;;;
2021/11/13 02:44:11;;;;;;;51.2;68;;;;;;;5.5;80.1;98950;;;;
2021/11/13 02:54:09;;;;;;;51.2;68;;;;;;;5.2;80.7;98940;;;;
2021/11/13 03:04:10;;;;;;;51.2;68;;;;;;;5.2;80.6;98930;;;;
2021/11/13 03:14:09;;;;;;;51.4;70.3;;;;;;;4.8;82.1;98930;;;;
2021/11/13 03:24:09;;;;;;;51.4;70.3;;;;;;;5;81.9;98920;;;;
2021/11/13 03:34:09;;;;;;;51.4;70.3;;;;;;;5.1;81.5;98920;;;;
2021/11/13 03:44:10;;;;;;;52.6;69.7;;;;;;;4.8;82.4;98920;;;;
2021/11/13 03:54:10;;;;;;;52.6;69.7;;;;;;;5;81.9;98920;;;;
2021/11/13 04:04:10;;;;;;;52.6;69.7;;;;;;;5.1;82;98920;;;;
2021/11/13 04:14:09;;;;;;;51.9;71;;;;;;;4.9;82.4;98910;;;;
2021/11/13 04:24:10;;;;;;;51.9;71;;;;;;;5;82;98900;;;;
2021/11/13 04:34:14;;;;;;;51.9;71;;;;;;;5.1;82;98910;;;;
2021/11/13 04:44:10;;;;;;;53.3;70.3;;;;;;;4.8;82.8;98900;;;;
2021/11/13 04:54:10;;;;;;;53.3;70.3;;;;;;;5;81.8;98910;;;;
2021/11/13 05:04:10;;;;;;;53.3;70.3;;;;;;;4.9;82.5;98910;;;;
2021/11/13 05:14:10;;;;;;;50.6;67.2;;;;;;;5.1;81.9;98910;;;;
2021/11/13 05:24:10;;;;;;;50.6;67.2;;;;;;;5;82.2;98910;;;;
2021/11/13 05:34:10;;;;;;;50.6;67.2;;;;;;;4.8;82.2;98910;;;;
2021/11/13 05:44:10;;;;;;;48.4;63.8;;;;;;;4.9;81.6;98910;;;;
2021/11/13 05:54:10;;;;;;;48.4;63.8;;;;;;;5.1;81.6;98910;;;;
2021/11/13 06:05:10;;;;;;;48.4;63.8;;;;;;;5;81.6;98910;;;;
2021/11/13 06:15:10;;;;;;;49.7;68.8;;;;;;;4.9;82.1;98920;;;;
2021/11/13 06:25:10;;;;;;;49.7;68.8;;;;;;;4.8;81.9;98930;;;;
2021/11/13 06:35:10;;;;;;;49.7;68.8;;;;;;;4.8;81.9;98950;;;;
2021/11/13 06:45:10;;;;;;;44.2;55.9;;;;;;;4.9;81.4;98950;;;;
2021/11/13 06:55:10;;;;;;;44.2;55.9;;;;;;;4.9;81.5;98950;;;;
2021/11/13 07:05:10;;;;;;;44.2;55.9;;;;;;;4.8;82.1;98960;;;;
2021/11/13 07:15:10;;;;;;;40.9;54.2;;;;;;;4.8;82.2;98960;;;;
2021/11/13 07:25:13;;;;;;;40.9;54.2;;;;;;;4.9;82.1;98950;;;;
2021/11/13 07:35:10;;;;;;;40.9;54.2;;;;;;;5;81.7;98960;;;;
2021/11/13 07:45:10;;;;;;;41.4;53.6;;;;;;;5.2;81.2;98950;;;;
2021/11/13 07:56:10;;;;;;;41.4;53.6;;;;;;;5.4;80.7;98950;;;;
2021/11/13 08:06:10;;;;;;;41.4;53.6;;;;;;;5.4;80.9;98940;;;;
2021/11/13 08:16:10;;;;;;;44.2;58.3;;;;;;;5.3;79.8;98940;;;;
2021/11/13 08:26:10;;;;;;;44.2;58.3;;;;;;;5.1;80;98950;;;;
2021/11/13 08:36:10;;;;;;;44.2;58.3;;;;;;;5.5;79.8;98960;;;;
2021/11/13 08:46:10;;;;;;;40;51;;;;;;;5.5;79.5;98950;;;;
2021/11/13 08:56:10;;;;;;;40;51;;;;;;;5.6;79.7;98950;;;;
2021/11/13 09:06:10;;;;;;;40;51;;;;;;;5.6;78.8;98950;;;;
2021/11/13 09:17:10;;;;;;;42.1;59;;;;;;;5.6;78.9;98940;;;;
2021/11/13 09:27:10;;;;;;;42.1;59;;;;;;;5.8;78.5;98940;;;;
2021/11/13 09:37:10;;;;;;;40.7;53.3;;;;;;;6;78.7;98940;;;;
2021/11/13 09:48:10;;;;;;;40.7;53.3;;;;;;;6.1;77.3;98940;;;;
2021/11/13 09:58:10;;;;;;;40.7;53.3;;;;;;;5.8;78.2;98940;;;;
2021/11/13 10:09:10;;;;;;;41.6;57.6;;;;;;;6.1;77.7;98920;;;;
2021/11/13 10:19:10;;;;;;;41.6;57.6;;;;;;;5.7;79.2;98910;;;;
2021/11/13 10:29:10;;;;;;;41.6;57.6;;;;;;;6.1;78.1;98900;;;;
2021/11/13 10:39:10;;;;;;;50.5;66.9;;;;;;;6.6;76.6;98890;;;;
2021/11/13 10:49:10;;;;;;;50.5;66.9;;;;;;;6.2;76.9;98890;;;;
2021/11/13 10:59:10;;;;;;;50.5;66.9;;;;;;;6.1;77.5;98880;;;;
2021/11/13 11:09:10;;;;;;;52;64.4;;;;;;;6.4;76.5;98870;;;;
2021/11/13 11:19:10;;;;;;;52;64.4;;;;;;;6.6;76;98860;;;;
2021/11/13 11:29:10;;;;;;;52;64.4;;;;;;;6.2;76.4;98850;;;;
2021/11/13 11:39:10;;;;;;;45.4;65.9;;;;;;;6.3;76.7;98850;;;;
2021/11/13 11:49:10;;;;;;;45.4;65.9;;;;;;;6.1;76.3;98840;;;;
2021/11/13 11:59:10;;;;;;;45.4;65.9;;;;;;;6.2;75.8;98840;;;;
2021/11/13 12:09:10;;;;;;;42.8;58.9;;;;;;;6.4;75;98840;;;;
2021/11/13 12:19:10;;;;;;;42.8;58.9;;;;;;;5.9;76.2;98840;;;;
2021/11/13 12:29:12;;;;;;;42.8;58.9;;;;;;;5.8;76.9;98830;;;;
2021/11/13 12:39:10;;;;;;;48.2;62.6;;;;;;;5.9;76.2;98830;;;;
2021/11/13 12:49:10;;;;;;;48.2;62.6;;;;;;;5.8;76.6;98820;;;;
2021/11/13 12:59:10;;;;;;;48.2;62.6;;;;;;;6;76.7;98800;;;;
2021/11/13 13:09:10;;;;;;;62.1;80.4;;;;;;;5.9;76.6;98800;;;;
2021/11/13 13:19:10;;;;;;;62.1;80.4;;;;;;;5.9;76.4;98800;;;;
2021/11/13 13:29:10;;;;;;;62.1;80.4;;;;;;;5.6;77.2;98800;;;;
2021/11/13 13:39:10;;;;;;;57.4;81.5;;;;;;;5.5;77.7;98800;;;;
2021/11/13 13:50:10;;;;;;;57.4;81.5;;;;;;;5.5;78;98800;;;;
2021/11/13 14:00:10;;;;;;;57.4;81.5;;;;;;;5.7;77.4;98800;;;;
2021/11/13 14:10:10;;;;;;;58.9;76.4;;;;;;;5.1;79;98820;;;;
2021/11/13 14:20:10;;;;;;;58.9;76.4;;;;;;;5.3;78.4;98820;;;;
2021/11/13 14:31:10;;;;;;;58.9;76.4;;;;;;;5.2;78.9;98820;;;;
2021/11/13 14:41:11;;;;;;;60.5;83.7;;;;;;;5.2;79.4;98820;;;;
2021/11/13 14:51:10;;;;;;;60.5;83.7;;;;;;;5.4;78.7;98820;;;;
2021/11/13 15:01:10;;;;;;;60.5;83.7;;;;;;;5.3;78.7;98820;;;;
2021/11/13 15:11:10;;;;;;;63;89.4;;;;;;;5.5;78.4;98820;;;;
2021/11/13 15:21:10;;;;;;;63;89.4;;;;;;;5.3;78.3;98830;;;;
2021/11/13 15:31:14;;;;;;;63;89.4;;;;;;;5.3;78.7;98850;;;;
2021/11/13 15:41:10;;;;;;;58.6;80.3;;;;;;;5.3;78.8;98860;;;;
2021/11/13 15:51:11;;;;;;;58.6;80.3;;;;;;;5.3;78.5;98870;;;;
2021/11/13 16:01:10;;;;;;;58.6;80.3;;;;;;;5.3;78.3;98870;;;;
2021/11/13 16:11:10;;;;;;;60.7;86.1;;;;;;;5.2;78.8;98880;;;;
2021/11/13 16:21:10;;;;;;;60.7;86.1;;;;;;;5.2;78.9;98890;;;;
2021/11/13 16:31:10;;;;;;;60.7;86.1;;;;;;;5.2;78.7;98890;;;;
2021/11/13 16:42:10;;;;;;;62.4;78;;;;;;;5.2;78.6;98900;;;;
2021/11/13 16:52:10;;;;;;;62.4;78;;;;;;;5;79.2;98900;;;;
2021/11/13 17:02:10;;;;;;;62.4;78;;;;;;;5;79.3;98900;;;;
2021/11/13 17:13:10;;;;;;;60.5;84.5;;;;;;;4.9;79.9;98910;;;;
2021/11/13 17:23:10;;;;;;;60.5;84.5;;;;;;;5.1;79.4;98920;;;;
2021/11/13 17:33:10;;;;;;;60.5;84.5;;;;;;;5.2;79.3;98920;;;;
2021/11/13 17:43:10;;;;;;;63;79.7;;;;;;;5.2;79.5;98910;;;;
2021/11/13 17:53:10;;;;;;;63;79.7;;;;;;;5.3;79.5;98920;;;;
2021/11/13 18:03:10;;;;;;;63;79.7;;;;;;;5.1;80.3;98920;;;;
2021/11/13 18:13:11;;;;;;;60.6;83;;;;;;;5.1;80.5;98910;;;;
2021/11/13 18:23:10;;;;;;;60.6;83;;;;;;;5;80.9;98910;;;;
2021/11/13 18:34:10;;;;;;;60.6;83;;;;;;;5.1;80.6;98920;;;;
2021/11/13 18:44:10;;;;;;;63.6;86.2;;;;;;;5.1;81;98930;;;;
2021/11/13 18:54:10;;;;;;;63.6;86.2;;;;;;;5.2;80.2;98930;;;;
2021/11/13 19:04:13;;;;;;;63.6;86.2;;;;;;;5.2;80.2;98920;;;;
2021/11/13 19:14:10;;;;;;;71;86.1;;;;;;;5.1;80.4;98930;;;;
2021/11/13 19:24:10;;;;;;;71;86.1;;;;;;;5;80.2;98930;;;;
2021/11/13 19:34:10;;;;;;;71;86.1;;;;;;;5.2;79.6;98940;;;;
2021/11/13 19:44:10;;;;;;;75.1;95.9;;;;;;;5.2;79.5;98940;;;;
2021/11/13 19:55:10;;;;;;;75.1;95.9;;;;;;;5.3;79.4;98940;;;;
2021/11/13 20:05:11;;;;;;;107;129.2;;;;;;;5.3;78.9;98950;;;;
2021/11/13 20:15:10;;;;;;;107;129.2;;;;;;;5.3;78.9;98960;;;;
2021/11/13 20:25:11;;;;;;;107;129.2;;;;;;;5.2;78.7;98970;;;;
2021/11/13 20:35:11;;;;;;;84.5;110.2;;;;;;;5;78.7;98970;;;;
2021/11/13 20:46:10;;;;;;;84.5;110.2;;;;;;;4.9;78.2;98980;;;;
2021/11/13 20:56:10;;;;;;;84.5;110.2;;;;;;;4.9;78.3;98980;;;;
2021/11/13 21:06:10;;;;;;;75.8;92.3;;;;;;;4.8;78.7;98980;;;;
2021/11/13 21:16:10;;;;;;;75.8;92.3;;;;;;;4.8;79.3;98980;;;;
2021/11/13 21:27:10;;;;;;;75.8;92.3;;;;;;;4.7;80.4;98980;;;;
2021/11/13 21:37:10;;;;;;;82.5;107.6;;;;;;;4.8;79.9;98980;;;;
2021/11/13 21:47:10;;;;;;;82.5;107.6;;;;;;;4.7;79.5;98990;;;;
2021/11/13 21:57:10;;;;;;;82.5;107.6;;;;;;;4.9;78.9;99000;;;;
2021/11/13 22:07:12;;;;;;;63.9;79.6;;;;;;;5;78.7;99000;;;;
2021/11/13 22:17:12;;;;;;;63.9;79.6;;;;;;;5;78.5;99010;;;;
2021/11/13 22:28:10;;;;;;;63.9;79.6;;;;;;;4.9;78.5;99030;;;;
2021/11/13 22:38:10;;;;;;;56.1;68.1;;;;;;;5;77.9;99030;;;;
2021/11/13 22:48:10;;;;;;;56.1;68.1;;;;;;;4.9;77.9;99030;;;;
2021/11/13 22:58:10;;;;;;;56.1;68.1;;;;;;;4.6;77.9;99030;;;;
2021/11/13 23:08:10;;;;;;;58.2;70.4;;;;;;;4.6;78.3;99050;;;;
2021/11/13 23:18:10;;;;;;;58.2;70.4;;;;;;;4.6;78.4;99050;;;;
2021/11/13 23:28:10;;;;;;;58.2;70.4;;;;;;;4.7;78.5;99050;;;;
2021/11/13 23:38:10;;;;;;;63.5;80.7;;;;;;;4.8;78.7;99060;;;;
2021/11/13 23:49:10;;;;;;;63.5;80.7;;;;;;;4.9;78.6;99060;;;;
2021/11/13 23:59:10;;;;;;;63.5;80.7;;;;;;;4.9;78.7;99070;;;;
